Time;durP1;ratioP1;P1;durP2;ratioP2;P2;SDS_P1;SDS_P2;PMS_P1;PMS_P2;Temp;Humidity;BMP_temperature;BMP_pressure;BME280_temperature;BME280_humidity;BME280_pressure;Samples;Min_cycle;Max_cycle;Signal;HPM_P1;HPM_P2
2022/02/01 00:02:10;;;;;;;18.15;4.55;;;;;;;3.87;90.09;102029.41;4845965;29;20045;-47
2022/02/01 00:07:21;;;;;;;20.08;4.55;;;;;;;3.87;90.03;102030.25;4860467;29;20061;-46
2022/02/01 00:10:11;;;;;;;15.32;4.13;;;;;;;3.88;89.75;102023.03;4859526;29;20057;-47
2022/02/01 00:13:02;;;;;;;22.85;5.13;;;;;;;3.84;89.95;102028.78;4860798;29;20382;-44
2022/02/01 00:18:16;;;;;;;23.42;4.88;;;;;;;3.87;89.81;102040.22;4843476;29;20117;-48
2022/02/01 00:37:13;;;;;;;22.45;4.93;;;;;;;3.80;89.81;102067.97;4859934;29;20041;-47
2022/02/01 00:39:43;;;;;;;19.65;4.40;;;;;;;3.81;89.83;102075.00;4843083;29;20509;-50
2022/02/01 00:42:12;;;;;;;20.15;4.90;;;;;;;3.80;89.71;102069.78;4859771;29;20045;-45
2022/02/01 00:44:40;;;;;;;24.65;5.10;;;;;;;3.82;89.53;102059.66;4860694;29;20101;-48
2022/02/01 00:47:08;;;;;;;19.98;4.65;;;;;;;3.87;89.67;102062.59;4862989;29;20050;-48
2022/02/01 00:49:36;;;;;;;16.70;4.70;;;;;;;3.90;89.45;102067.63;4862027;29;20813;-47
2022/02/01 00:52:04;;;;;;;16.90;4.28;;;;;;;3.91;89.76;102066.59;4862825;29;20045;-47
2022/02/01 00:54:32;;;;;;;15.68;4.82;;;;;;;3.91;89.96;102068.47;4863114;29;20037;-46
2022/02/01 00:57:00;;;;;;;15.18;4.10;;;;;;;3.91;89.37;102063.06;4862952;29;20084;-48
2022/02/01 00:59:28;;;;;;;14.43;4.55;;;;;;;3.90;89.31;102050.63;4862675;29;20054;-46
2022/02/01 01:01:55;;;;;;;17.80;4.90;;;;;;;3.91;89.34;102052.28;4862405;29;20097;-47
2022/02/01 01:04:23;;;;;;;15.85;4.60;;;;;;;3.88;89.76;102047.28;4863119;29;20128;-48
2022/02/01 01:06:50;;;;;;;18.13;4.30;;;;;;;3.84;90.03;102042.25;4846473;29;20057;-45
2022/02/01 01:09:18;;;;;;;18.25;4.95;;;;;;;3.87;89.79;102040.22;4862472;29;20053;-48
2022/02/01 01:11:46;;;;;;;15.07;4.00;;;;;;;3.89;89.71;102032.75;4862653;29;20044;-47
2022/02/01 01:17:08;;;;;;;16.77;4.30;;;;;;;3.94;89.97;101996.09;4863885;29;20072;-49
2022/02/01 01:44:45;;;;;;;16.45;4.43;;;;;;;3.89;89.64;102043.56;4805899;29;20111;-52
2022/02/01 01:53:11;;;;;;;15.07;3.55;;;;;;;3.89;90.08;102017.41;4804961;29;20043;-51
2022/02/01 01:55:42;;;;;;;14.80;3.50;;;;;;;3.90;90.15;102064.09;4804945;29;20055;-43
2022/02/01 01:58:10;;;;;;;14.15;3.50;;;;;;;3.92;89.84;102038.63;4805286;29;20050;-48
2022/02/01 02:03:14;;;;;;;10.87;3.47;;;;;;;3.94;89.94;102052.72;4804890;29;20134;-46
2022/02/01 02:05:42;;;;;;;12.23;3.97;;;;;;;3.98;89.90;102061.25;4804604;29;20050;-48
2022/02/01 02:08:11;;;;;;;14.77;4.00;;;;;;;3.97;90.15;102065.84;4805047;29;20055;-47
2022/02/01 02:10:49;;;;;;;13.52;3.70;;;;;;;3.98;89.72;102058.56;4804770;29;20070;-47
2022/02/01 02:16:02;;;;;;;12.90;3.83;;;;;;;4.02;90.13;102019.41;4804394;29;20055;-47
2022/02/01 02:18:32;;;;;;;15.15;3.78;;;;;;;4.02;89.94;102022.09;4823709;29;20054;-47
2022/02/01 02:21:01;;;;;;;18.65;4.05;;;;;;;4.00;89.89;102045.72;4861703;29;20049;-47
2022/02/01 02:23:30;;;;;;;19.75;4.00;;;;;;;3.98;90.10;102050.47;4849961;29;20048;-49
2022/02/01 02:25:58;;;;;;;13.20;3.70;;;;;;;3.98;89.48;102039.69;4853033;29;20045;-49
2022/02/01 02:28:26;;;;;;;12.73;4.10;;;;;;;3.99;89.31;102050.28;4861080;29;20042;-49
2022/02/01 02:30:54;;;;;;;15.15;4.15;;;;;;;4.02;89.58;102038.28;4861534;29;20056;-50
2022/02/01 02:33:22;;;;;;;13.43;3.75;;;;;;;4.00;89.43;102041.16;4860982;29;20128;-50
2022/02/01 02:36:08;;;;;;;16.13;4.25;;;;;;;3.98;88.91;102042.38;4844095;29;20048;-48
2022/02/01 02:46:38;;;;;;;12.82;3.58;;;;;;;4.02;89.05;102017.53;4861114;29;20045;-46
2022/02/01 02:49:09;;;;;;;18.77;4.43;;;;;;;4.02;89.30;102024.81;4861132;29;20097;-47
2022/02/01 02:51:38;;;;;;;16.55;3.72;;;;;;;4.00;88.72;102021.47;4860950;29;20425;-44
2022/02/01 02:54:11;;;;;;;14.05;3.88;;;;;;;4.01;88.98;102025.81;4860869;29;20045;-46
2022/02/01 02:56:43;;;;;;;18.00;4.60;;;;;;;4.00;89.05;102013.38;4860857;29;20416;-48
2022/02/01 02:59:13;;;;;;;15.50;4.00;;;;;;;3.98;89.30;102005.47;4860993;29;20408;-48
2022/02/01 03:01:47;;;;;;;11.98;3.50;;;;;;;3.99;89.27;102011.69;4860999;29;20054;-50
2022/02/01 03:04:16;;;;;;;18.33;4.40;;;;;;;4.00;89.13;102018.75;4860792;29;20113;-49
2022/02/01 03:06:45;;;;;;;16.50;3.67;;;;;;;4.03;88.97;102008.41;4860651;29;20064;-46
2022/02/01 03:09:15;;;;;;;11.18;3.72;;;;;;;4.07;89.11;102008.88;4860414;29;20129;-48
2022/02/01 03:11:43;;;;;;;10.43;3.45;;;;;;;4.09;88.80;102012.22;4860888;29;20056;-48
2022/02/01 03:19:52;;;;;;;15.85;4.25;;;;;;;4.11;89.19;101999.34;4860720;29;20045;-49
2022/02/01 03:22:22;;;;;;;11.57;3.72;;;;;;;4.13;88.88;101977.56;4860610;29;20046;-46
2022/02/01 03:24:51;;;;;;;13.15;3.95;;;;;;;4.15;89.33;101959.34;4860580;29;20139;-46
2022/02/01 03:27:19;;;;;;;14.55;3.90;;;;;;;4.16;88.79;101959.16;4860582;29;20057;-50
2022/02/01 03:29:47;;;;;;;14.52;3.53;;;;;;;4.15;89.28;101962.03;4860232;29;20042;-46
2022/02/01 03:32:16;;;;;;;13.65;4.35;;;;;;;4.15;89.48;101964.72;4860848;29;20531;-48
2022/02/01 03:34:44;;;;;;;15.02;3.60;;;;;;;4.17;89.21;101960.81;4844351;29;20049;-48
2022/02/01 03:37:11;;;;;;;12.32;3.38;;;;;;;4.16;89.36;101961.84;4859736;29;20503;-45
2022/02/01 03:39:39;;;;;;;12.05;3.42;;;;;;;4.15;89.03;101945.84;4860391;29;20055;-48
2022/02/01 03:42:07;;;;;;;14.73;3.67;;;;;;;4.13;89.62;101932.53;4860653;29;20080;-48
2022/02/01 03:44:35;;;;;;;14.13;3.63;;;;;;;4.15;89.70;101933.19;4860626;29;20060;-46
2022/02/01 03:47:02;;;;;;;14.93;3.90;;;;;;;4.16;89.28;101939.41;4860315;29;20052;-49
2022/02/01 03:49:36;;;;;;;10.75;3.13;;;;;;;4.14;89.48;101939.63;4855113;29;20048;-47
2022/02/01 03:52:05;;;;;;;13.48;3.67;;;;;;;4.17;89.89;101928.44;4860065;29;20062;-47
2022/02/01 03:54:34;;;;;;;12.32;3.90;;;;;;;4.19;89.69;101920.16;4860577;29;20405;-50
2022/02/01 03:57:04;;;;;;;11.00;3.15;;;;;;;4.18;90.02;101913.91;4860266;29;20057;-47
2022/02/01 03:59:32;;;;;;;12.32;3.53;;;;;;;4.18;90.10;101919.28;4859892;29;20038;-52
2022/02/01 04:02:01;;;;;;;14.20;3.53;;;;;;;4.20;90.32;101911.03;4860106;29;20046;-49
2022/02/01 04:04:31;;;;;;;15.73;3.55;;;;;;;4.18;90.59;101908.50;4860482;29;20050;-44
2022/02/01 04:06:59;;;;;;;13.30;3.70;;;;;;;4.17;90.90;101912.25;4860312;29;20045;-48
2022/02/01 04:09:28;;;;;;;13.63;3.60;;;;;;;4.14;90.94;101915.34;4859725;29;20057;-49
2022/02/01 04:11:58;;;;;;;13.70;3.78;;;;;;;4.13;91.48;101910.97;4860403;29;20051;-45
2022/02/01 04:14:32;;;;;;;13.98;3.83;;;;;;;4.12;91.64;101909.31;4860219;29;20102;-47
2022/02/01 04:17:03;;;;;;;13.75;3.92;;;;;;;4.13;91.61;101916.38;4860073;29;20136;-47
2022/02/01 04:19:31;;;;;;;11.93;3.45;;;;;;;4.17;91.95;101912.25;4860211;29;20049;-47
2022/02/01 04:22:01;;;;;;;13.40;3.45;;;;;;;4.20;91.47;101917.25;4847369;29;20053;-49
2022/02/01 04:24:39;;;;;;;11.85;3.65;;;;;;;4.21;91.07;101915.38;4863634;29;20046;-44
2022/02/01 04:27:11;;;;;;;13.00;4.03;;;;;;;4.19;91.15;101907.50;4863781;29;20053;-44
2022/02/01 04:29:43;;;;;;;14.57;3.95;;;;;;;4.16;91.82;101926.78;4863577;29;20481;-45
2022/02/01 04:32:11;;;;;;;12.90;3.47;;;;;;;4.15;91.32;101925.09;4864241;29;20045;-49
2022/02/01 04:34:39;;;;;;;10.65;3.35;;;;;;;4.22;92.17;101917.88;4864217;29;20046;-45
2022/02/01 04:37:06;;;;;;;11.55;3.40;;;;;;;4.30;91.82;101922.28;4864762;29;20481;-51
2022/02/01 04:39:34;;;;;;;13.85;3.88;;;;;;;4.25;91.69;101912.06;4863811;29;20049;-50
2022/02/01 04:42:01;;;;;;;11.50;3.50;;;;;;;4.23;91.43;101916.88;4863031;29;20049;-50
2022/02/01 04:44:30;;;;;;;12.90;3.50;;;;;;;4.20;91.15;101911.84;4863463;29;20045;-50
2022/02/01 04:46:58;;;;;;;14.73;3.75;;;;;;;4.21;91.41;101900.03;4863498;29;20052;-48
2022/02/01 04:49:25;;;;;;;15.32;3.80;;;;;;;4.28;92.04;101908.16;4863683;29;20136;-48
2022/02/01 04:51:53;;;;;;;16.08;4.22;;;;;;;4.26;91.13;101911.06;4862313;29;20045;-49
2022/02/01 04:54:20;;;;;;;13.43;3.60;;;;;;;4.20;91.56;101917.25;4863129;29;20065;-49
2022/02/01 04:56:48;;;;;;;15.63;3.80;;;;;;;4.22;91.59;101909.78;4863318;29;20053;-47
2022/02/01 04:59:16;;;;;;;16.27;3.92;;;;;;;4.20;91.14;101914.53;4863178;29;20056;-47
2022/02/01 05:01:43;;;;;;;16.10;3.90;;;;;;;4.21;91.81;101901.88;4862249;29;20496;-46
2022/02/01 05:04:18;;;;;;;13.63;3.60;;;;;;;4.20;91.02;101900.22;4863150;29;20061;-46
2022/02/01 05:06:52;;;;;;;15.48;4.65;;;;;;;4.21;90.95;101888.41;4862799;29;20056;-46
2022/02/01 05:09:21;;;;;;;13.95;3.83;;;;;;;4.19;90.91;101894.00;4862631;29;20069;-46
2022/02/01 05:11:50;;;;;;;9.13;3.40;;;;;;;4.22;90.87;101890.06;4862485;29;20086;-46
2022/02/01 05:14:26;;;;;;;13.25;4.18;;;;;;;4.20;91.77;101884.03;4863220;29;20041;-48
2022/02/01 05:21:59;;;;;;;13.02;4.60;;;;;;;4.26;91.00;101845.50;4860855;29;20389;-44
2022/02/01 05:24:27;;;;;;;16.75;4.20;;;;;;;4.30;91.67;101840.50;4862261;29;20049;-45
2022/02/01 05:26:56;;;;;;;17.00;4.57;;;;;;;4.24;91.65;101848.38;4862878;29;20052;-47
2022/02/01 05:29:24;;;;;;;17.45;4.40;;;;;;;4.27;91.64;101831.78;4862816;29;20050;-46
2022/02/01 05:31:52;;;;;;;15.50;4.70;;;;;;;4.27;91.73;101826.38;4862270;29;20057;-48
2022/02/01 05:34:20;;;;;;;16.00;4.43;;;;;;;4.29;92.19;101811.88;4862385;29;20121;-48
2022/02/01 05:36:48;;;;;;;14.63;4.20;;;;;;;4.28;92.24;101811.03;4862385;29;20052;-50
2022/02/01 05:39:24;;;;;;;11.02;3.30;;;;;;;4.39;94.15;101794.25;4862592;29;20046;-48
2022/02/01 05:41:54;;;;;;;19.70;5.35;;;;;;;4.35;92.75;101800.25;4861529;29;20128;-47
2022/02/01 05:44:22;;;;;;;18.50;5.32;;;;;;;4.33;92.64;101810.44;4861859;29;20224;-43
2022/02/01 05:46:50;;;;;;;12.15;4.15;;;;;;;4.35;93.23;101805.66;4862776;29;20060;-47
2022/02/01 05:49:18;;;;;;;18.55;5.97;;;;;;;4.30;92.71;101803.56;4862597;29;20060;-48
2022/02/01 05:51:49;;;;;;;18.08;4.75;;;;;;;4.27;93.20;101802.09;4845336;29;20041;-47
2022/02/01 05:54:17;;;;;;;19.13;4.95;;;;;;;4.30;93.66;101794.66;4861722;29;20038;-46
2022/02/01 05:56:45;;;;;;;13.77;3.90;;;;;;;4.33;93.81;101775.34;4862445;29;20056;-46
2022/02/01 05:59:12;;;;;;;15.35;5.10;;;;;;;4.31;93.86;101778.28;4862093;29;20045;-47
2022/02/01 06:01:40;;;;;;;16.52;5.60;;;;;;;4.27;94.39;101772.44;4861856;29;20057;-46
2022/02/01 06:04:07;;;;;;;18.38;5.00;;;;;;;4.29;94.30;101766.03;4861660;29;20132;-49
2022/02/01 06:06:35;;;;;;;19.85;5.43;;;;;;;4.26;95.12;101776.19;4861360;29;20045;-46
2022/02/01 06:09:03;;;;;;;17.35;5.63;;;;;;;4.24;95.37;101761.22;4523937;29;10000517;-49
2022/02/01 06:11:30;;;;;;;17.35;5.18;;;;;;;4.25;95.53;101747.53;4858643;29;20058;-46
2022/02/01 06:13:58;;;;;;;19.23;5.38;;;;;;;4.31;95.73;101753.16;4858862;29;20049;-46
2022/02/01 06:16:26;;;;;;;12.98;4.00;;;;;;;4.35;96.47;101754.41;4858329;29;20084;-49
2022/02/01 06:18:53;;;;;;;26.63;6.40;;;;;;;4.33;96.47;101737.56;4858386;29;20053;-47
2022/02/01 06:21:21;;;;;;;19.83;6.30;;;;;;;4.30;96.65;101729.91;4858376;29;20046;-46
2022/02/01 06:23:49;;;;;;;16.92;5.60;;;;;;;4.35;97.00;101738.22;4858003;29;20060;-48
2022/02/01 06:26:16;;;;;;;17.58;5.57;;;;;;;4.31;97.70;101736.97;4857859;29;20052;-47
2022/02/01 06:28:44;;;;;;;22.27;5.68;;;;;;;4.32;97.47;101747.53;4858347;29;20045;-47
2022/02/01 06:31:12;;;;;;;15.82;5.45;;;;;;;4.32;98.20;101741.31;4858111;29;20041;-48
2022/02/01 06:33:39;;;;;;;19.65;6.38;;;;;;;4.31;97.87;101726.19;4857118;29;20049;-48
2022/02/01 06:36:07;;;;;;;20.33;6.88;;;;;;;4.32;98.36;101738.63;4857163;29;20045;-47
2022/02/01 06:38:34;;;;;;;19.73;5.93;;;;;;;4.30;99.23;101738.00;4857097;29;20049;-47
2022/02/01 06:41:02;;;;;;;19.88;6.60;;;;;;;4.26;99.56;101735.72;4857923;29;20083;-49
2022/02/01 06:43:30;;;;;;;24.38;6.93;;;;;;;4.25;100.00;101728.63;4857081;29;20124;-47
2022/02/01 06:45:58;;;;;;;24.95;8.25;;;;;;;4.24;100.00;101713.50;4824835;29;20445;-47
2022/02/01 06:48:26;;;;;;;19.60;6.85;;;;;;;4.23;100.00;101711.84;4856675;29;20211;-44
2022/02/01 06:50:54;;;;;;;23.73;6.40;;;;;;;4.29;100.00;101710.19;4858036;29;20073;-45
2022/02/01 06:53:23;;;;;;;21.52;7.10;;;;;;;4.32;100.00;101706.25;4857470;29;20097;-48
2022/02/01 06:56:00;;;;;;;15.75;5.28;;;;;;;4.38;100.00;101706.28;4858038;29;20061;-48
2022/02/01 06:58:27;;;;;;;19.23;6.88;;;;;;;4.37;100.00;101711.88;4857588;29;20057;-47
2022/02/01 07:00:55;;;;;;;20.52;6.75;;;;;;;4.40;100.00;101716.84;4857813;29;20050;-47
2022/02/01 07:03:23;;;;;;;17.42;6.20;;;;;;;4.46;100.00;101699.84;4857834;29;20080;-47
2022/02/01 07:05:51;;;;;;;21.23;6.20;;;;;;;4.45;100.00;101696.31;4857928;29;20057;-51
2022/02/01 07:08:19;;;;;;;16.65;5.00;;;;;;;4.52;100.00;101704.41;4857892;29;20094;-51
2022/02/01 07:10:47;;;;;;;21.92;7.68;;;;;;;4.46;100.00;101705.25;4857620;29;20061;-50
2022/02/01 07:13:16;;;;;;;18.88;6.88;;;;;;;4.52;100.00;101692.78;4857453;29;20535;-47
2022/02/01 07:15:44;;;;;;;18.00;8.40;;;;;;;4.55;100.00;101690.53;4857368;29;20045;-46
2022/02/01 07:18:11;;;;;;;22.55;9.55;;;;;;;4.51;100.00;101680.34;4857448;29;20520;-48
2022/02/01 07:20:39;;;;;;;18.98;8.43;;;;;;;4.51;100.00;101680.34;4856983;29;20053;-48
2022/02/01 07:23:11;;;;;;;23.70;9.95;;;;;;;4.54;100.00;101688.84;4857153;29;20045;-46
2022/02/01 07:25:46;;;;;;;25.17;11.20;;;;;;;4.53;100.00;101686.38;4857421;29;20042;-47
2022/02/01 07:28:18;;;;;;;26.45;12.38;;;;;;;4.50;100.00;101690.31;4857555;29;20053;-49
2022/02/01 07:30:46;;;;;;;23.42;11.60;;;;;;;4.47;100.00;101674.50;4857070;29;20061;-48
2022/02/01 07:33:14;;;;;;;24.02;11.52;;;;;;;4.56;100.00;101684.06;4856987;29;20523;-52
2022/02/01 07:35:42;;;;;;;24.17;12.02;;;;;;;4.49;100.00;101675.97;4857936;29;20065;-50
2022/02/01 07:38:11;;;;;;;28.25;12.45;;;;;;;4.48;100.00;101677.00;4859876;29;20050;-50
2022/02/01 07:40:39;;;;;;;24.08;11.32;;;;;;;4.56;100.00;101678.66;4860373;29;20443;-48
2022/02/01 07:43:07;;;;;;;27.88;13.43;;;;;;;4.63;100.00;101673.28;4860056;29;20061;-49
2022/02/01 07:45:37;;;;;;;23.80;12.43;;;;;;;4.62;100.00;101658.97;4860045;29;20064;-48
2022/02/01 07:48:05;;;;;;;27.17;12.05;;;;;;;4.61;100.00;101670.78;4860267;29;20050;-48
2022/02/01 07:50:33;;;;;;;25.67;10.55;;;;;;;4.84;100.00;101669.53;4860105;29;20049;-49
2022/02/01 07:53:01;;;;;;;23.33;12.05;;;;;;;4.78;100.00;101637.97;4859577;29;20461;-49
2022/02/01 07:55:28;;;;;;;20.70;11.15;;;;;;;4.69;100.00;101638.19;4863847;29;20049;-48
2022/02/01 07:57:56;;;;;;;20.42;11.50;;;;;;;4.76;100.00;101640.03;4511545;29;10000166;-47
2022/02/01 08:00:24;;;;;;;20.95;9.32;;;;;;;4.91;100.00;101643.38;4860866;29;20053;-46
2022/02/01 08:02:55;;;;;;;18.83;10.73;;;;;;;4.80;100.00;101619.69;4860597;29;20053;-42
2022/02/01 08:05:25;;;;;;;24.23;11.00;;;;;;;4.84;100.00;101620.94;4861086;29;20202;-47
2022/02/01 08:07:53;;;;;;;20.02;11.13;;;;;;;4.76;100.00;101621.16;4843215;29;20065;-48
2022/02/01 08:10:21;;;;;;;19.15;10.80;;;;;;;4.75;100.00;101625.72;4858289;29;20409;-45
2022/02/01 08:18:29;;;;;;;16.75;10.20;;;;;;;4.61;100.00;101619.50;4864425;29;20048;-48
2022/02/01 08:21:01;;;;;;;16.00;10.38;;;;;;;4.64;100.00;101608.31;4865375;29;20045;-48
2022/02/01 08:23:30;;;;;;;15.15;9.70;;;;;;;4.58;100.00;101611.81;4863535;29;20048;-44
2022/02/01 08:25:59;;;;;;;16.20;9.90;;;;;;;4.58;100.00;101611.81;4864272;29;20065;-48
2022/02/01 08:28:26;;;;;;;16.13;9.35;;;;;;;4.68;100.00;101609.53;4863773;29;20497;-46
2022/02/01 08:31:00;;;;;;;16.67;7.90;;;;;;;4.66;100.00;101614.31;4863820;29;20065;-46
2022/02/01 08:33:28;;;;;;;16.23;8.52;;;;;;;4.69;100.00;101608.50;4863221;29;20049;-45
2022/02/01 08:35:55;;;;;;;21.23;8.88;;;;;;;4.93;100.00;101600.78;4863636;29;20504;-47
2022/02/01 08:38:23;;;;;;;13.63;7.68;;;;;;;4.79;100.00;101593.75;4863412;29;20576;-47
2022/02/01 08:40:51;;;;;;;12.45;8.07;;;;;;;4.87;100.00;101582.72;4863716;29;20052;-44
2022/02/01 08:43:19;;;;;;;16.83;7.95;;;;;;;4.78;100.00;101575.88;4863375;29;20045;-42
2022/02/01 08:45:48;;;;;;;13.20;7.10;;;;;;;4.79;100.00;101580.25;4863611;29;20072;-42
2022/02/01 08:48:16;;;;;;;14.05;7.30;;;;;;;5.03;100.00;101576.88;4863521;29;20053;-42
2022/02/01 08:50:45;;;;;;;15.65;7.63;;;;;;;5.07;100.00;101567.28;4863416;29;20394;-42
2022/02/01 08:53:20;;;;;;;16.15;7.30;;;;;;;5.10;100.00;101556.06;4862695;29;20046;-47
2022/02/01 08:58:19;;;;;;;14.68;6.75;;;;;;;5.18;100.00;101554.16;4863395;29;20057;-47
2022/02/01 09:00:47;;;;;;;13.65;6.53;;;;;;;5.22;100.00;101531.91;4862998;29;20085;-47
2022/02/01 09:03:14;;;;;;;18.83;7.00;;;;;;;5.03;100.00;101539.06;4863488;29;20105;-47
2022/02/01 09:05:48;;;;;;;11.48;6.82;;;;;;;4.90;100.00;101528.28;4845779;29;20508;-46
2022/02/01 09:08:16;;;;;;;12.27;6.22;;;;;;;4.99;100.00;101509.97;4863079;29;20037;-45
2022/02/01 09:10:45;;;;;;;10.10;5.72;;;;;;;4.91;100.00;101492.16;4862769;29;20157;-46
2022/02/01 09:13:13;;;;;;;15.82;6.78;;;;;;;5.07;100.00;101496.22;4862810;29;20050;-49
2022/02/01 09:15:40;;;;;;;16.90;6.80;;;;;;;5.03;100.00;101490.44;4862612;29;20038;-47
2022/02/01 09:18:08;;;;;;;10.68;6.07;;;;;;;5.28;100.00;101479.69;4862954;29;20118;-47
2022/02/01 09:20:36;;;;;;;17.58;6.38;;;;;;;5.23;100.00;101473.28;4863021;29;20472;-46
2022/02/01 09:23:03;;;;;;;20.63;6.57;;;;;;;5.26;100.00;101472.84;4862465;29;20181;-48
2022/02/01 09:25:31;;;;;;;8.50;5.35;;;;;;;5.12;100.00;101455.88;4862543;29;20049;-48
2022/02/01 09:28:00;;;;;;;9.70;5.80;;;;;;;5.15;100.00;101460.03;4862781;29;20042;-48
2022/02/01 09:30:30;;;;;;;11.18;5.88;;;;;;;5.01;100.00;101452.00;4862635;29;20505;-49
2022/02/01 09:32:59;;;;;;;11.23;6.38;;;;;;;5.09;100.00;101443.63;4862802;29;20163;-53
2022/02/01 09:35:27;;;;;;;13.27;6.20;;;;;;;5.09;100.00;101440.13;4862406;29;20508;-49
2022/02/01 09:37:54;;;;;;;11.80;5.85;;;;;;;5.00;100.00;101442.22;4862250;29;20049;-44
2022/02/01 09:40:42;;;;;;;10.57;5.80;;;;;;;4.92;100.00;101434.41;4862535;29;20052;-44
2022/02/01 09:43:10;;;;;;;9.07;5.60;;;;;;;5.17;100.00;101410.16;4862491;29;20045;-46
2022/02/01 09:45:37;;;;;;;10.18;5.72;;;;;;;5.17;100.00;101396.66;4862544;29;20085;-45
2022/02/01 09:48:08;;;;;;;12.43;5.72;;;;;;;5.08;100.00;101377.19;4862090;29;20489;-44
2022/02/01 09:50:36;;;;;;;9.48;4.97;;;;;;;5.03;100.00;101379.72;4862182;29;20450;-43
2022/02/01 09:53:04;;;;;;;11.77;6.28;;;;;;;5.13;100.00;101377.34;4862201;29;20358;-42
2022/02/01 09:55:32;;;;;;;10.30;6.35;;;;;;;5.11;100.00;101368.63;4862276;29;20049;-45
2022/02/01 09:58:01;;;;;;;11.18;5.40;;;;;;;5.29;100.00;101358.94;4845743;29;20472;-44
2022/02/01 10:00:36;;;;;;;8.77;5.65;;;;;;;5.20;100.00;101360.28;4861624;29;20137;-44
2022/02/01 10:03:05;;;;;;;;;;;;;;;5.27;100.00;101351.06;4862485;29;20050;-44
2022/02/01 10:05:37;;;;;;;8.25;5.32;;;;;;;5.38;100.00;101357.63;4862070;29;19924;-49
2022/02/01 10:08:05;;;;;;;8.70;5.70;;;;;;;5.25;100.00;101360.44;4861762;29;20053;-46
2022/02/01 10:10:33;;;;;;;9.32;6.13;;;;;;;5.26;100.00;101376.41;4861987;29;20145;-49
2022/02/01 10:13:12;;;;;;;11.63;5.95;;;;;;;5.13;100.00;101381.94;4864258;29;20403;-48
2022/02/01 10:16:04;;;;;;;13.05;6.30;;;;;;;5.24;100.00;101373.13;4864152;29;20049;-49
2022/02/01 10:18:35;;;;;;;9.65;6.10;;;;;;;5.23;100.00;101384.16;4861669;29;20461;-50
2022/02/01 10:21:06;;;;;;;10.02;6.40;;;;;;;5.18;100.00;101370.47;4861877;29;20090;-48
2022/02/01 10:23:35;;;;;;;9.10;6.47;;;;;;;5.16;100.00;101365.28;4861667;29;20049;-47
2022/02/01 10:26:11;;;;;;;9.63;6.65;;;;;;;5.13;100.00;101363.84;4861578;29;20054;-46
2022/02/01 10:28:58;;;;;;;12.93;6.43;;;;;;;5.32;100.00;101372.03;4860717;29;20166;-47
2022/02/01 10:31:40;;;;;;;11.05;6.10;;;;;;;5.26;100.00;101375.59;4861696;29;20060;-47
2022/02/01 10:36:57;;;;;;;9.38;6.80;;;;;;;5.24;100.00;101367.72;4861563;29;20053;-44
2022/02/01 10:39:26;;;;;;;8.35;6.53;;;;;;;5.18;100.00;101354.25;4860558;29;20045;-49
2022/02/01 10:41:56;;;;;;;9.18;6.85;;;;;;;5.17;100.00;101349.88;4861627;29;20144;-45
2022/02/01 10:44:42;;;;;;;9.63;7.03;;;;;;;5.18;100.00;101346.16;4860392;29;20049;-46
2022/02/01 10:47:11;;;;;;;9.38;7.18;;;;;;;5.18;100.00;101346.97;4861177;29;20398;-48
2022/02/01 10:50:06;;;;;;;9.30;6.60;;;;;;;5.19;100.00;101337.81;4860275;29;20054;-45
2022/02/01 10:52:45;;;;;;;12.70;7.25;;;;;;;5.23;100.00;101340.91;4860554;29;20125;-46
2022/02/01 10:55:14;;;;;;;11.45;7.32;;;;;;;5.24;100.00;101324.50;4860594;29;20508;-45
2022/02/01 10:57:42;;;;;;;9.63;5.97;;;;;;;5.27;100.00;101317.84;4860909;29;20453;-45
2022/02/01 11:00:12;;;;;;;13.35;6.60;;;;;;;5.48;100.00;101309.34;4861136;29;20041;-47
2022/02/01 11:02:43;;;;;;;10.70;5.75;;;;;;;5.41;100.00;101327.47;4861113;29;20046;-46
2022/02/01 11:05:17;;;;;;;10.57;5.65;;;;;;;5.47;100.00;101323.06;4860574;29;20053;-45
2022/02/01 11:08:04;;;;;;;7.85;5.20;;;;;;;5.45;100.00;101306.22;4844725;29;20839;-48
2022/02/01 11:10:33;;;;;;;10.40;5.00;;;;;;;5.46;100.00;101306.03;4860543;29;20061;-43
2022/02/01 11:13:09;;;;;;;7.13;4.57;;;;;;;5.47;100.00;101293.31;4860715;29;20405;-48
2022/02/01 11:15:37;;;;;;;8.27;4.55;;;;;;;5.48;100.00;101286.84;4843584;29;20069;-44
2022/02/01 11:18:26;;;;;;;8.82;4.68;;;;;;;5.60;100.00;101301.28;4844072;29;20045;-44
2022/02/01 11:21:02;;;;;;;5.38;3.60;;;;;;;5.65;100.00;101296.06;4185607;29;10000418;-48
2022/02/01 11:26:27;;;;;;;7.65;4.25;;;;;;;5.80;100.00;101267.81;4857720;29;20149;-47
2022/02/01 11:31:50;;;;;;;6.53;3.50;;;;;;;5.75;100.00;101279.31;4857409;29;20069;-47
2022/02/01 11:34:29;;;;;;;6.25;3.60;;;;;;;5.79;100.00;101266.16;4857282;29;20045;-47
2022/02/01 11:37:10;;;;;;;5.95;3.03;;;;;;;5.77;100.00;101266.38;4856673;29;20569;-47
2022/02/01 11:39:51;;;;;;;5.00;3.22;;;;;;;5.83;100.00;101273.59;4857190;29;20049;-48
2022/02/01 11:42:21;;;;;;;5.65;3.10;;;;;;;5.87;100.00;101279.38;4856836;29;20060;-48
2022/02/01 11:45:02;;;;;;;4.88;3.08;;;;;;;5.92;100.00;101272.25;4857211;29;20033;-49
2022/02/01 11:47:35;;;;;;;6.13;3.42;;;;;;;5.91;100.00;101259.78;4856988;29;20153;-48
2022/02/01 11:50:14;;;;;;;6.60;3.20;;;;;;;5.95;100.00;101244.78;4856919;29;20048;-45
2022/02/01 11:52:48;;;;;;;5.57;3.35;;;;;;;6.01;100.00;101250.34;4856295;29;20057;-49
2022/02/01 11:55:16;;;;;;;9.35;3.70;;;;;;;6.10;100.00;101244.38;4856967;29;20050;-47
2022/02/01 11:58:04;;;;;;;5.20;2.90;;;;;;;6.24;100.00;101239.63;4857148;29;20094;-47
2022/02/01 12:00:39;;;;;;;5.63;2.75;;;;;;;6.21;100.00;101231.97;4856912;29;20045;-50
2022/02/01 12:03:09;;;;;;;7.28;2.80;;;;;;;6.16;100.00;101231.84;4859413;29;20050;-50
2022/02/01 12:05:39;;;;;;;4.43;2.60;;;;;;;6.15;100.00;101217.47;4858363;29;20077;-49
2022/02/01 12:08:14;;;;;;;4.43;2.70;;;;;;;6.16;100.00;101231.84;4858938;29;20037;-47
2022/02/01 12:10:52;;;;;;;5.55;2.83;;;;;;;6.15;100.00;101238.28;4859829;29;20061;-48
2022/02/01 12:13:21;;;;;;;6.93;2.80;;;;;;;6.17;100.00;101242.41;4862268;29;20051;-48
2022/02/01 12:15:56;;;;;;;6.65;2.97;;;;;;;6.19;100.00;101232.19;4869156;29;20055;-45
2022/02/01 12:18:46;;;;;;;6.40;2.70;;;;;;;6.23;100.00;101240.69;4867972;29;20065;-49
2022/02/01 12:21:29;;;;;;;5.72;3.08;;;;;;;6.24;100.00;101214.47;4858688;29;20044;-46
2022/02/01 12:23:58;;;;;;;7.75;3.15;;;;;;;6.29;100.00;101210.00;4858669;29;20397;-47
2022/02/01 12:26:32;;;;;;;10.55;3.70;;;;;;;6.29;100.00;101207.28;4860794;29;20093;-43
2022/02/01 12:29:03;;;;;;;8.18;3.50;;;;;;;6.32;100.00;101185.19;4875575;29;20059;-48
2022/02/01 12:31:33;;;;;;;9.90;3.50;;;;;;;6.34;100.00;101172.25;4866725;29;20504;-50
2022/02/01 12:34:03;;;;;;;15.43;4.75;;;;;;;6.39;100.00;101185.91;4866649;29;20493;-55
2022/02/01 12:36:39;;;;;;;16.92;5.10;;;;;;;6.44;100.00;101176.28;4861590;29;20508;-49
2022/02/01 12:39:53;;;;;;;13.75;4.82;;;;;;;6.47;100.00;101162.28;4862332;29;20169;-53
2022/02/01 12:42:14;;;;;;;15.45;5.40;;;;;;;6.49;100.00;101168.28;4874779;29;20393;-49
2022/02/01 12:47:23;;;;;;;16.90;5.90;;;;;;;6.51;100.00;101158.06;4871719;29;20045;-48
2022/02/01 12:50:13;;;;;;;15.88;5.35;;;;;;;6.53;100.00;101147.81;4878040;29;20057;-46
2022/02/01 12:52:41;;;;;;;19.23;6.00;;;;;;;6.56;100.00;101153.56;4881154;29;20049;-44
2022/02/01 12:55:09;;;;;;;14.30;4.68;;;;;;;6.56;100.00;101161.69;4881084;29;20420;-47
2022/02/01 12:58:04;;;;;;;19.42;5.53;;;;;;;6.59;100.00;101155.00;4876130;29;20044;-50
2022/02/01 13:00:33;;;;;;;18.10;5.38;;;;;;;6.63;100.00;101158.88;4880938;29;20045;-50
2022/02/01 13:03:03;;;;;;;15.13;5.38;;;;;;;6.64;100.00;101157.00;4878329;29;20049;-47
2022/02/01 13:05:32;;;;;;;17.52;4.93;;;;;;;6.67;100.00;101143.03;4878932;29;20414;-48
2022/02/01 13:21:37;;;;;;;16.85;5.70;;;;;;;6.80;100.00;101132.75;4880473;29;20053;-48
2022/02/01 13:24:05;;;;;;;15.90;5.47;;;;;;;6.86;100.00;101143.75;4877816;29;20044;-48
2022/02/01 13:26:45;;;;;;;15.23;4.45;;;;;;;6.84;100.00;101127.72;4880597;29;20081;-47
2022/02/01 13:29:14;;;;;;;13.48;4.47;;;;;;;6.85;100.00;101112.28;4874255;29;20077;-49
2022/02/01 13:31:51;;;;;;;18.08;5.43;;;;;;;6.87;100.00;101115.59;4860322;29;20537;-48